Time;durP1;ratioP1;P1;durP2;ratioP2;P2;SDS_P1;SDS_P2;PMS_P1;PMS_P2;Temp;Humidity;BMP_temperature;BMP_pressure;BME280_temperature;BME280_humidity;BME280_pressure;Samples;Min_cycle;Max_cycle;Signal;HPM_P1;HPM_P2
2021/08/30 00:00:19;;;;;;;0.00;0.00;;;25.10;68.40;;;;;;4899808;29;20028;-73
2021/08/30 00:02:45;;;;;;;0.00;0.00;;;25.10;68.60;;;;;;4900006;29;20032;-73
2021/08/30 00:05:11;;;;;;;0.20;0.03;;;25.00;68.80;;;;;;4899975;29;20044;-73
2021/08/30 00:07:37;;;;;;;0.00;0.00;;;25.00;69.00;;;;;;4882854;29;20455;-73
2021/08/30 00:10:05;;;;;;;0.10;0.00;;;25.00;69.10;;;;;;4899582;29;20064;-73
2021/08/30 00:12:31;;;;;;;0.00;0.00;;;25.00;69.20;;;;;;4897926;29;20032;-72
2021/08/30 00:14:57;;;;;;;0.00;0.00;;;25.00;69.30;;;;;;4899399;29;20172;-73
2021/08/30 00:17:23;;;;;;;0.00;0.00;;;25.00;69.40;;;;;;4897957;29;20033;-73
2021/08/30 00:19:48;;;;;;;0.00;0.00;;;25.00;69.90;;;;;;4899316;29;20029;-73
2021/08/30 00:22:14;;;;;;;0.00;0.00;;;24.90;70.30;;;;;;4899264;29;20339;-73
2021/08/30 00:24:40;;;;;;;0.00;0.00;;;24.90;70.60;;;;;;4899012;29;20059;-73
2021/08/30 00:27:06;;;;;;;0.00;0.00;;;24.90;71.00;;;;;;4899690;29;20115;-73
2021/08/30 00:29:31;;;;;;;0.00;0.00;;;24.90;71.40;;;;;;4898971;29;20059;-73
2021/08/30 00:31:58;;;;;;;0.00;0.00;;;24.80;71.80;;;;;;4899709;29;20040;-73
2021/08/30 00:34:24;;;;;;;0.00;0.00;;;24.80;72.30;;;;;;4899273;29;20069;-73
2021/08/30 00:36:51;;;;;;;0.00;0.00;;;24.80;72.60;;;;;;4898058;29;20032;-73
2021/08/30 00:39:18;;;;;;;0.00;0.00;;;24.70;72.90;;;;;;4899046;29;20032;-73
2021/08/30 00:41:46;;;;;;;0.00;0.00;;;24.70;73.20;;;;;;4882749;29;20440;-73
2021/08/30 00:44:11;;;;;;;0.00;0.00;;;24.70;73.50;;;;;;4899430;29;20450;-72
2021/08/30 00:46:37;;;;;;;0.00;0.00;;;24.70;73.70;;;;;;4882188;29;20084;-73
2021/08/30 00:49:03;;;;;;;0.00;0.00;;;24.70;73.90;;;;;;4898994;29;20036;-72
2021/08/30 00:51:29;;;;;;;0.00;0.00;;;24.70;74.10;;;;;;4899186;29;20036;-72
2021/08/30 00:53:58;;;;;;;0.00;0.00;;;24.70;74.30;;;;;;4898630;29;20469;-72
2021/08/30 00:56:24;;;;;;;0.00;0.00;;;24.70;74.40;;;;;;4898949;29;20115;-73
2021/08/30 00:58:50;;;;;;;0.00;0.00;;;24.60;74.50;;;;;;4898638;29;20052;-72
2021/08/30 01:01:16;;;;;;;0.00;0.00;;;24.60;74.80;;;;;;4898759;29;20381;-72
2021/08/30 01:03:41;;;;;;;0.32;0.08;;;24.60;74.90;;;;;;4898750;29;20389;-72
2021/08/30 01:06:23;;;;;;;0.00;0.00;;;24.60;75.10;;;;;;4882026;29;20446;-72
2021/08/30 01:09:26;;;;;;;0.00;0.00;;;24.60;75.40;;;;;;4899075;29;20385;-72
2021/08/30 01:12:25;;;;;;;0.05;0.05;;;24.60;75.50;;;;;;4867072;29;20044;-73
2021/08/30 01:14:59;;;;;;;0.00;0.00;;;24.50;75.60;;;;;;4898640;29;20080;-73
2021/08/30 01:17:26;;;;;;;0.00;0.00;;;24.50;75.80;;;;;;4881613;29;20433;-73
2021/08/30 01:20:03;;;;;;;0.00;0.00;;;24.50;75.90;;;;;;4881884;29;20064;-72
2021/08/30 01:22:30;;;;;;;0.00;0.00;;;24.50;76.20;;;;;;4898653;29;20040;-72
2021/08/30 01:24:58;;;;;;;0.00;0.00;;;24.50;76.20;;;;;;4898338;29;20033;-73
2021/08/30 01:27:29;;;;;;;0.00;0.00;;;24.50;76.20;;;;;;4898828;29;20515;-73
2021/08/30 01:30:05;;;;;;;0.00;0.00;;;24.50;76.30;;;;;;4898378;29;20049;-74
2021/08/30 01:32:38;;;;;;;0.00;0.00;;;24.50;76.40;;;;;;4881398;29;20036;-74
2021/08/30 01:35:07;;;;;;;0.10;0.00;;;24.40;76.50;;;;;;4881406;29;20453;-73
2021/08/30 01:37:36;;;;;;;0.00;0.00;;;24.40;76.50;;;;;;4898478;29;20093;-72
2021/08/30 01:40:05;;;;;;;0.00;0.00;;;24.40;76.50;;;;;;4898449;29;20029;-72
2021/08/30 01:42:33;;;;;;;0.00;0.00;;;24.40;76.50;;;;;;4898562;29;20048;-72
2021/08/30 01:44:59;;;;;;;0.00;0.00;;;24.40;76.50;;;;;;4898455;29;20112;-72
2021/08/30 01:47:26;;;;;;;0.00;0.00;;;24.40;76.60;;;;;;4898458;29;20086;-72
2021/08/30 01:50:03;;;;;;;0.00;0.00;;;24.50;76.60;;;;;;4901797;29;20489;-72
2021/08/30 01:52:35;;;;;;;0.00;0.00;;;24.40;76.60;;;;;;4902376;29;20381;-72
2021/08/30 01:55:31;;;;;;;0.00;0.00;;;24.40;76.60;;;;;;4901955;29;20040;-72
2021/08/30 02:00:48;;;;;;;0.00;0.00;;;24.40;76.60;;;;;;4901910;29;20346;-75
2021/08/30 02:03:21;;;;;;;0.00;0.00;;;24.30;76.60;;;;;;4901950;29;20255;-73
2021/08/30 02:05:53;;;;;;;0.10;0.10;;;24.30;76.60;;;;;;4902275;29;20088;-73
2021/08/30 02:08:22;;;;;;;0.00;0.00;;;24.30;76.80;;;;;;4901697;29;20029;-73
2021/08/30 02:10:49;;;;;;;0.00;0.00;;;24.30;77.00;;;;;;4901903;29;20033;-73
2021/08/30 02:13:16;;;;;;;0.00;0.00;;;24.30;77.20;;;;;;4901468;29;20512;-73
2021/08/30 02:15:43;;;;;;;0.13;0.00;;;24.20;77.50;;;;;;4901534;29;20036;-74
2021/08/30 02:18:15;;;;;;;0.00;0.00;;;24.20;77.70;;;;;;4901871;29;20032;-72
2021/08/30 02:20:45;;;;;;;0.00;0.00;;;24.20;77.90;;;;;;4902035;29;20401;-74
2021/08/30 02:23:14;;;;;;;0.00;0.00;;;24.20;77.90;;;;;;4902182;29;20116;-74
2021/08/30 02:25:40;;;;;;;0.00;0.00;;;24.20;78.10;;;;;;4901207;29;20029;-74
2021/08/30 02:28:07;;;;;;;0.00;0.00;;;24.10;78.10;;;;;;4901501;29;20024;-73
2021/08/30 02:30:36;;;;;;;0.10;0.00;;;24.20;78.10;;;;;;4884322;29;20417;-74
2021/08/30 02:33:06;;;;;;;0.00;0.00;;;24.10;78.10;;;;;;4901210;29;20033;-75
2021/08/30 02:35:35;;;;;;;0.10;0.10;;;24.10;78.00;;;;;;4901496;29;20029;-74
2021/08/30 02:38:02;;;;;;;0.00;0.00;;;24.10;77.90;;;;;;4901867;29;20073;-74
2021/08/30 02:40:29;;;;;;;0.00;0.00;;;24.10;77.90;;;;;;4901033;29;20108;-75
2021/08/30 02:42:58;;;;;;;0.00;0.00;;;24.10;77.90;;;;;;4901237;29;20407;-73
2021/08/30 02:45:25;;;;;;;0.00;0.00;;;24.10;77.80;;;;;;4884262;29;20041;-74
2021/08/30 02:47:51;;;;;;;0.00;0.00;;;24.00;77.70;;;;;;4885083;29;20409;-74
2021/08/30 02:50:18;;;;;;;0.00;0.00;;;24.10;77.80;;;;;;4901145;29;20395;-74
2021/08/30 02:52:45;;;;;;;0.00;0.00;;;24.00;77.70;;;;;;4901024;29;20036;-73
2021/08/30 02:55:12;;;;;;;0.00;0.00;;;24.00;77.90;;;;;;4901137;29;20463;-72
2021/08/30 02:57:39;;;;;;;0.00;0.00;;;24.00;77.70;;;;;;4900856;29;20103;-73
2021/08/30 03:00:06;;;;;;;0.00;0.00;;;24.00;77.80;;;;;;4899974;29;20376;-73
2021/08/30 03:02:32;;;;;;;0.00;0.00;;;24.00;77.90;;;;;;4900885;29;20112;-73
2021/08/30 03:04:59;;;;;;;0.00;0.00;;;24.00;77.90;;;;;;4883917;29;20048;-73
2021/08/30 03:07:28;;;;;;;0.00;0.00;;;24.00;78.10;;;;;;4900735;29;20108;-73
2021/08/30 03:09:55;;;;;;;0.00;0.00;;;24.00;78.40;;;;;;4900896;29;20025;-73
2021/08/30 03:12:21;;;;;;;0.00;0.00;;;24.00;78.60;;;;;;4900623;29;20060;-73
2021/08/30 03:14:48;;;;;;;0.00;0.00;;;24.00;78.70;;;;;;4900599;29;20044;-73
2021/08/30 03:17:16;;;;;;;0.00;0.00;;;24.00;78.70;;;;;;4900880;29;20112;-73
2021/08/30 03:19:45;;;;;;;0.32;0.03;;;24.00;78.70;;;;;;4883653;29;20397;-73
2021/08/30 03:22:14;;;;;;;0.00;0.00;;;24.00;78.70;;;;;;4900507;29;20119;-73
2021/08/30 03:24:41;;;;;;;0.00;0.00;;;24.00;78.60;;;;;;4900506;29;20385;-73
2021/08/30 03:27:09;;;;;;;0.00;0.00;;;24.00;78.50;;;;;;4900692;29;20025;-74
2021/08/30 03:29:36;;;;;;;0.00;0.00;;;24.00;78.40;;;;;;4883199;29;20076;-73
2021/08/30 03:32:03;;;;;;;0.00;0.00;;;24.00;78.30;;;;;;4900314;29;20060;-75
2021/08/30 03:34:29;;;;;;;0.00;0.00;;;24.00;78.20;;;;;;4900389;29;20041;-74
2021/08/30 03:36:55;;;;;;;0.00;0.00;;;24.00;78.20;;;;;;4899962;29;20092;-74
2021/08/30 03:39:21;;;;;;;0.00;0.00;;;24.00;78.10;;;;;;4900108;29;20029;-73
2021/08/30 03:41:50;;;;;;;0.00;0.00;;;24.10;78.00;;;;;;4900162;29;20108;-74
2021/08/30 03:44:18;;;;;;;0.00;0.00;;;24.10;78.00;;;;;;4900332;29;20381;-74
2021/08/30 03:46:44;;;;;;;0.00;0.00;;;24.10;77.90;;;;;;4899915;29;20039;-74
2021/08/30 03:49:10;;;;;;;0.00;0.00;;;24.10;77.80;;;;;;4899834;29;20120;-74
2021/08/30 03:51:37;;;;;;;0.00;0.00;;;24.10;77.70;;;;;;4900100;29;20032;-73
2021/08/30 03:54:04;;;;;;;0.00;0.00;;;24.20;77.40;;;;;;4899803;29;20119;-73
2021/08/30 03:56:30;;;;;;;0.00;0.00;;;24.10;77.00;;;;;;4899702;29;20024;-74
2021/08/30 03:58:57;;;;;;;0.00;0.00;;;24.20;76.90;;;;;;4899423;29;20107;-74
2021/08/30 04:01:25;;;;;;;0.03;0.00;;;24.20;76.70;;;;;;4900004;29;20056;-73
2021/08/30 04:03:53;;;;;;;0.00;0.00;;;24.20;76.60;;;;;;4899658;29;20036;-73
2021/08/30 04:06:21;;;;;;;0.00;0.00;;;24.30;76.50;;;;;;4882803;29;20036;-73
2021/08/30 04:08:47;;;;;;;0.00;0.00;;;24.30;76.30;;;;;;4899651;29;20343;-74
2021/08/30 04:11:14;;;;;;;0.00;0.00;;;24.30;76.10;;;;;;4899344;29;20029;-73
2021/08/30 04:13:40;;;;;;;0.00;0.00;;;24.40;76.00;;;;;;4899639;29;20020;-73
2021/08/30 04:16:07;;;;;;;0.00;0.00;;;24.40;75.90;;;;;;4899302;29;20061;-73
2021/08/30 04:18:34;;;;;;;0.00;0.00;;;24.50;75.80;;;;;;4882273;29;20039;-72
2021/08/30 04:21:00;;;;;;;0.00;0.00;;;24.50;75.80;;;;;;4899437;29;20076;-72
2021/08/30 04:23:25;;;;;;;0.00;0.00;;;24.50;75.70;;;;;;4899386;29;20032;-73
2021/08/30 04:25:51;;;;;;;0.00;0.00;;;24.60;75.60;;;;;;4899176;29;20080;-73
2021/08/30 04:28:17;;;;;;;0.00;0.00;;;24.70;75.50;;;;;;4899266;29;20478;-74
2021/08/30 04:30:42;;;;;;;0.00;0.00;;;24.70;75.40;;;;;;4900001;29;20052;-74
2021/08/30 04:33:12;;;;;;;0.00;0.00;;;24.80;75.10;;;;;;4882597;29;20373;-74
2021/08/30 04:35:38;;;;;;;0.00;0.00;;;24.80;74.80;;;;;;4899053;29;20556;-74
2021/08/30 04:38:05;;;;;;;0.00;0.00;;;24.80;74.60;;;;;;4899110;29;20052;-74
2021/08/30 04:40:31;;;;;;;0.00;0.00;;;24.90;74.60;;;;;;4898835;29;20532;-72
2021/08/30 04:42:58;;;;;;;0.00;0.00;;;24.90;74.30;;;;;;4899041;29;20034;-75
2021/08/30 04:45:23;;;;;;;0.00;0.00;;;24.90;74.10;;;;;;4899249;29;20028;-73
2021/08/30 04:47:49;;;;;;;0.00;0.00;;;25.00;73.80;;;;;;4899003;29;20079;-73
2021/08/30 04:50:15;;;;;;;0.00;0.00;;;25.00;73.30;;;;;;4899766;29;20032;-74
2021/08/30 04:52:41;;;;;;;0.00;0.00;;;25.10;72.90;;;;;;4898856;29;20043;-75
2021/08/30 04:55:07;;;;;;;0.00;0.00;;;25.20;72.40;;;;;;4898499;29;20043;-75
2021/08/30 04:57:33;;;;;;;0.00;0.00;;;25.20;71.10;;;;;;4898463;29;20038;-74
2021/08/30 04:59:58;;;;;;;0.00;0.00;;;25.30;70.90;;;;;;4898811;29;20025;-74
2021/08/30 05:02:29;;;;;;;0.00;0.00;;;25.40;69.90;;;;;;4898725;29;20359;-73
2021/08/30 05:04:55;;;;;;;0.00;0.00;;;25.40;69.50;;;;;;4898613;29;20073;-74
2021/08/30 05:07:21;;;;;;;0.00;0.00;;;25.50;68.90;;;;;;4898682;29;20029;-73
2021/08/30 05:09:47;;;;;;;0.00;0.00;;;25.60;68.10;;;;;;4898367;29;20028;-73
2021/08/30 05:12:12;;;;;;;0.00;0.00;;;25.70;67.30;;;;;;4898660;29;20036;-73
2021/08/30 05:14:38;;;;;;;0.08;0.08;;;25.70;66.30;;;;;;4897312;29;20548;-74
2021/08/30 05:17:04;;;;;;;0.10;0.00;;;25.70;65.40;;;;;;4898973;29;20457;-73
2021/08/30 05:19:30;;;;;;;0.00;0.00;;;25.80;64.80;;;;;;4898524;29;20085;-75
2021/08/30 05:21:55;;;;;;;0.00;0.00;;;25.80;64.30;;;;;;4898619;29;20359;-73
2021/08/30 05:24:21;;;;;;;0.00;0.00;;;25.80;63.90;;;;;;4904763;29;20036;-74
2021/08/30 05:26:47;;;;;;;0.00;0.00;;;25.90;63.60;;;;;;4904512;29;20066;-74
2021/08/30 05:29:13;;;;;;;0.00;0.00;;;25.90;63.10;;;;;;4905316;29;20028;-74
2021/08/30 05:31:38;;;;;;;0.00;0.00;;;26.00;62.70;;;;;;4905198;29;20085;-75
2021/08/30 05:34:04;;;;;;;0.00;0.00;;;26.00;62.20;;;;;;4904841;29;20072;-74
2021/08/30 05:36:30;;;;;;;0.10;0.00;;;26.10;62.10;;;;;;4904825;29;20623;-75
2021/08/30 05:38:56;;;;;;;0.10;0.00;;;26.20;61.50;;;;;;4904374;29;20031;-73
2021/08/30 05:41:22;;;;;;;0.00;0.00;;;26.20;60.90;;;;;;4904398;29;20461;-74
2021/08/30 05:43:48;;;;;;;0.00;0.00;;;26.20;60.60;;;;;;4888221;29;20061;-74
2021/08/30 05:46:16;;;;;;;0.00;0.00;;;26.20;60.20;;;;;;4904412;29;20036;-73
2021/08/30 05:48:46;;;;;;;0.00;0.00;;;26.20;60.00;;;;;;4887934;29;20024;-73
2021/08/30 05:51:12;;;;;;;0.00;0.00;;;26.20;59.70;;;;;;4904413;29;20025;-73
2021/08/30 05:53:39;;;;;;;0.00;0.00;;;26.20;59.50;;;;;;4887230;29;20035;-75
2021/08/30 05:56:05;;;;;;;0.00;0.00;;;26.10;59.60;;;;;;4904181;29;20032;-74
2021/08/30 05:58:31;;;;;;;0.00;0.00;;;26.10;59.70;;;;;;4887665;29;20040;-75
2021/08/30 06:00:57;;;;;;;0.00;0.00;;;26.20;59.70;;;;;;4904095;29;20385;-74
2021/08/30 06:03:23;;;;;;;0.00;0.00;;;26.20;59.70;;;;;;4904833;29;20035;-74
2021/08/30 06:05:48;;;;;;;0.00;0.00;;;26.20;60.00;;;;;;4904879;29;20033;-74
2021/08/30 06:08:33;;;;;;;0.05;0.00;;;26.30;59.40;;;;;;4904289;29;20036;-75
2021/08/30 06:11:04;;;;;;;0.00;0.00;;;26.40;59.10;;;;;;4887819;29;20088;-74
2021/08/30 06:13:30;;;;;;;0.00;0.00;;;26.40;59.00;;;;;;4887537;29;20029;-74
2021/08/30 06:15:56;;;;;;;0.10;0.10;;;26.50;58.70;;;;;;4904353;29;20040;-74
2021/08/30 06:18:22;;;;;;;0.00;0.00;;;26.50;58.70;;;;;;4887444;29;20535;-74
2021/08/30 06:20:47;;;;;;;0.00;0.00;;;26.60;58.50;;;;;;4904022;29;20088;-74
2021/08/30 06:23:13;;;;;;;0.00;0.00;;;26.70;58.30;;;;;;4904658;29;20040;-73
2021/08/30 06:25:39;;;;;;;0.00;0.00;;;26.80;58.20;;;;;;4904069;29;20068;-74
2021/08/30 06:28:04;;;;;;;0.00;0.00;;;26.70;58.00;;;;;;4903833;29;20029;-73
2021/08/30 06:30:30;;;;;;;0.00;0.00;;;26.70;58.00;;;;;;4886821;29;20056;-72
2021/08/30 06:32:56;;;;;;;0.00;0.00;;;26.80;58.00;;;;;;4903967;29;20032;-73
2021/08/30 06:35:23;;;;;;;0.00;0.00;;;26.80;58.00;;;;;;4901666;29;20041;-74
2021/08/30 06:37:48;;;;;;;0.00;0.00;;;26.70;57.80;;;;;;4901052;29;20036;-73
2021/08/30 06:40:14;;;;;;;0.10;0.00;;;26.80;57.90;;;;;;4901762;29;20032;-73
2021/08/30 06:42:40;;;;;;;0.00;0.00;;;26.80;57.90;;;;;;4901099;29;20471;-74
2021/08/30 06:45:06;;;;;;;0.00;0.00;;;26.90;57.80;;;;;;4900846;29;20039;-75
2021/08/30 06:47:32;;;;;;;0.00;0.00;;;26.90;57.70;;;;;;4901663;29;20060;-74
2021/08/30 06:49:58;;;;;;;0.10;0.10;;;27.00;57.80;;;;;;4901108;29;20473;-74
2021/08/30 06:52:24;;;;;;;0.00;0.00;;;27.00;57.70;;;;;;4899763;29;20053;-74
2021/08/30 06:54:50;;;;;;;0.00;0.00;;;27.10;57.70;;;;;;4900873;29;20474;-75
2021/08/30 06:57:15;;;;;;;0.00;0.00;;;27.10;57.80;;;;;;4900922;29;20036;-75
2021/08/30 06:59:41;;;;;;;0.00;0.00;;;27.20;58.00;;;;;;4883765;29;20035;-75
2021/08/30 07:02:07;;;;;;;0.00;0.00;;;27.20;57.80;;;;;;4900514;29;20044;-77
2021/08/30 07:04:33;;;;;;;0.00;0.00;;;27.40;57.80;;;;;;4883577;29;20028;-74
2021/08/30 07:06:59;;;;;;;0.10;0.10;;;27.60;57.70;;;;;;4900944;29;20469;-74
2021/08/30 07:09:25;;;;;;;0.00;0.00;;;27.80;57.50;;;;;;4883783;29;20024;-75
2021/08/30 07:11:51;;;;;;;0.00;0.00;;;28.10;57.40;;;;;;4900453;29;20035;-75
2021/08/30 07:14:18;;;;;;;0.00;0.00;;;28.20;57.10;;;;;;4900585;29;20039;-74
2021/08/30 07:16:44;;;;;;;0.00;0.00;;;28.30;56.90;;;;;;4883968;29;20040;-74
2021/08/30 07:19:10;;;;;;;0.00;0.00;;;28.40;56.90;;;;;;4900719;29;20039;-74
2021/08/30 07:21:35;;;;;;;0.00;0.00;;;28.50;57.20;;;;;;4900444;29;20024;-74
2021/08/30 07:24:01;;;;;;;0.08;0.08;;;28.50;57.50;;;;;;4900934;29;20037;-74
2021/08/30 07:26:27;;;;;;;0.00;0.00;;;28.60;57.60;;;;;;4900473;29;20164;-75
2021/08/30 07:28:53;;;;;;;0.10;0.10;;;28.80;57.70;;;;;;4900340;29;20027;-75
2021/08/30 07:31:19;;;;;;;0.00;0.00;;;29.00;57.40;;;;;;4899729;29;20501;-76
2021/08/30 07:33:45;;;;;;;0.00;0.00;;;29.20;56.50;;;;;;4900170;29;20381;-75
2021/08/30 07:36:12;;;;;;;0.00;0.00;;;29.30;56.30;;;;;;4900483;29;20028;-75
2021/08/30 07:38:39;;;;;;;0.00;0.00;;;29.30;56.50;;;;;;4883764;29;20024;-74
2021/08/30 07:41:05;;;;;;;0.00;0.00;;;29.60;56.70;;;;;;4899996;29;20111;-73
2021/08/30 07:43:31;;;;;;;0.00;0.00;;;29.80;56.70;;;;;;4900605;29;20188;-74
2021/08/30 07:45:59;;;;;;;0.00;0.00;;;30.10;56.60;;;;;;4899993;29;20031;-74
2021/08/30 07:48:25;;;;;;;0.00;0.00;;;30.20;55.90;;;;;;4882870;29;20040;-74
2021/08/30 07:50:51;;;;;;;0.00;0.00;;;30.20;55.70;;;;;;4899996;29;20060;-74
2021/08/30 07:53:16;;;;;;;0.00;0.00;;;30.20;56.00;;;;;;4899627;29;20039;-75
2021/08/30 07:55:42;;;;;;;0.05;0.03;;;30.20;55.70;;;;;;4899878;29;20378;-76
2021/08/30 07:58:08;;;;;;;0.00;0.00;;;30.10;55.50;;;;;;4883152;29;20036;-74
2021/08/30 08:00:33;;;;;;;0.00;0.00;;;30.00;55.60;;;;;;4899968;29;20052;-74
2021/08/30 08:02:59;;;;;;;0.00;0.00;;;29.90;56.20;;;;;;4883048;29;20115;-74
2021/08/30 08:05:25;;;;;;;0.00;0.00;;;30.00;56.70;;;;;;4900039;29;20051;-73
2021/08/30 08:07:51;;;;;;;0.00;0.00;;;30.00;56.90;;;;;;4883150;29;20461;-74
2021/08/30 08:10:17;;;;;;;0.00;0.00;;;30.10;56.80;;;;;;4899668;29;20028;-72
2021/08/30 08:12:42;;;;;;;0.10;0.00;;;30.20;56.80;;;;;;4899286;29;20024;-78
2021/08/30 08:15:09;;;;;;;0.25;0.00;;;30.20;56.80;;;;;;4899149;29;20069;-74
2021/08/30 08:17:36;;;;;;;0.00;0.00;;;30.20;56.90;;;;;;4899597;29;20061;-75
2021/08/30 08:20:04;;;;;;;0.32;0.20;;;30.20;56.90;;;;;;4882805;29;20035;-75
2021/08/30 08:22:34;;;;;;;0.00;0.00;;;30.40;57.00;;;;;;4882615;29;20265;-74
2021/08/30 08:25:01;;;;;;;0.00;0.00;;;30.80;56.90;;;;;;4899470;29;20029;-74
2021/08/30 08:27:27;;;;;;;0.00;0.00;;;31.20;56.50;;;;;;4899275;29;20039;-74
2021/08/30 08:29:53;;;;;;;0.00;0.00;;;31.50;55.90;;;;;;4899260;29;20476;-73
2021/08/30 08:32:19;;;;;;;0.20;0.20;;;31.70;55.40;;;;;;4899087;29;20032;-73
2021/08/30 08:34:45;;;;;;;0.00;0.00;;;32.00;55.10;;;;;;4899239;29;20088;-75
2021/08/30 08:37:10;;;;;;;0.00;0.00;;;32.30;54.60;;;;;;4899265;29;20032;-74
2021/08/30 08:39:36;;;;;;;0.00;0.00;;;32.50;53.90;;;;;;4899225;29;20068;-74
2021/08/30 08:42:03;;;;;;;0.00;0.00;;;32.80;53.40;;;;;;4898893;29;20028;-75
2021/08/30 08:44:29;;;;;;;0.10;0.10;;;33.10;52.80;;;;;;4899025;29;20433;-74
2021/08/30 08:46:55;;;;;;;0.00;0.00;;;33.10;52.40;;;;;;4899100;29;20040;-74
2021/08/30 08:49:21;;;;;;;0.10;0.10;;;33.10;52.10;;;;;;4898632;29;20033;-74
2021/08/30 08:51:47;;;;;;;0.10;0.10;;;33.00;52.00;;;;;;4898877;29;20104;-75
2021/08/30 08:54:14;;;;;;;0.00;0.00;;;33.00;51.80;;;;;;4899606;29;20131;-74
2021/08/30 08:56:40;;;;;;;0.00;0.00;;;33.10;51.70;;;;;;4882039;29;20481;-74
2021/08/30 08:59:07;;;;;;;0.00;0.00;;;33.30;51.60;;;;;;4898099;29;20033;-74
2021/08/30 09:01:35;;;;;;;0.00;0.00;;;33.30;51.00;;;;;;4899000;29;20068;-74
2021/08/30 09:04:02;;;;;;;0.00;0.00;;;33.30;50.70;;;;;;4898993;29;20037;-75
2021/08/30 09:06:43;;;;;;;0.00;0.00;;;33.20;50.70;;;;;;4899712;29;20120;-74
2021/08/30 09:09:14;;;;;;;0.00;0.00;;;33.00;50.50;;;;;;4898809;29;20381;-74
2021/08/30 09:11:44;;;;;;;0.00;0.00;;;32.90;50.50;;;;;;4898592;29;20517;-74
2021/08/30 09:14:18;;;;;;;0.00;0.00;;;32.90;50.80;;;;;;4898884;29;20390;-74
2021/08/30 09:16:44;;;;;;;0.00;0.00;;;33.10;50.10;;;;;;4882024;29;20037;-75
2021/08/30 09:19:13;;;;;;;0.00;0.00;;;33.30;49.90;;;;;;4898802;29;20477;-74
2021/08/30 09:21:48;;;;;;;0.00;0.00;;;33.60;49.80;;;;;;4899299;29;20462;-74
2021/08/30 09:24:22;;;;;;;0.00;0.00;;;34.10;49.10;;;;;;4898754;29;20112;-74
2021/08/30 09:27:02;;;;;;;0.00;0.00;;;34.60;48.40;;;;;;4898454;29;20033;-74
2021/08/30 09:29:30;;;;;;;0.00;0.00;;;35.10;47.60;;;;;;4898487;29;20052;-74
2021/08/30 09:32:03;;;;;;;0.00;0.00;;;35.70;46.80;;;;;;4898261;29;20036;-74
2021/08/30 09:34:35;;;;;;;0.10;0.10;;;35.90;46.30;;;;;;4898829;29;20043;-75
2021/08/30 09:37:05;;;;;;;0.00;0.00;;;36.20;46.00;;;;;;4898170;29;20040;-74
2021/08/30 09:39:33;;;;;;;0.00;0.00;;;36.40;45.40;;;;;;4881787;29;20035;-75
2021/08/30 09:42:00;;;;;;;0.20;0.20;;;36.50;45.20;;;;;;4898553;29;20028;-74
2021/08/30 09:44:29;;;;;;;0.00;0.00;;;36.70;44.90;;;;;;4898341;29;20048;-75
2021/08/30 09:46:56;;;;;;;0.30;0.00;;;37.20;44.30;;;;;;4898045;29;20116;-74
2021/08/30 09:49:28;;;;;;;0.15;0.10;;;37.60;43.80;;;;;;4898119;29;20067;-74
2021/08/30 09:51:54;;;;;;;0.00;0.00;;;37.90;43.50;;;;;;4898219;29;20040;-74
2021/08/30 09:54:20;;;;;;;0.10;0.10;;;37.90;43.50;;;;;;4898220;29;20040;-74
2021/08/30 09:56:48;;;;;;;0.00;0.00;;;37.90;43.70;;;;;;4898198;29;20531;-73
2021/08/30 09:59:14;;;;;;;0.00;0.00;;;37.90;43.60;;;;;;4898453;29;20043;-74
2021/08/30 10:01:41;;;;;;;0.00;0.00;;;37.80;43.50;;;;;;4898285;29;20382;-74
2021/08/30 10:04:10;;;;;;;0.00;0.00;;;37.30;43.40;;;;;;4898262;29;20064;-75
2021/08/30 10:06:38;;;;;;;0.00;0.00;;;36.30;44.00;;;;;;4897831;29;20032;-74
2021/08/30 10:09:12;;;;;;;0.00;0.00;;;35.30;45.00;;;;;;4899467;29;20029;-75
2021/08/30 10:11:39;;;;;;;0.00;0.00;;;34.60;46.10;;;;;;4900852;29;20032;-75
2021/08/30 10:14:13;;;;;;;0.00;0.00;;;34.10;46.70;;;;;;4901400;29;20093;-73
2021/08/30 10:16:44;;;;;;;0.00;0.00;;;33.60;47.10;;;;;;4885257;29;20073;-75
2021/08/30 10:19:10;;;;;;;0.00;0.00;;;33.10;47.90;;;;;;4901835;29;20426;-74
2021/08/30 10:21:44;;;;;;;0.00;0.00;;;33.00;48.40;;;;;;4901373;29;20029;-75
2021/08/30 10:24:15;;;;;;;0.03;0.00;;;33.00;48.90;;;;;;4885593;29;20401;-75
2021/08/30 10:26:42;;;;;;;0.03;0.00;;;33.50;48.40;;;;;;4885154;29;20033;-73
2021/08/30 10:29:11;;;;;;;0.00;0.00;;;34.00;47.90;;;;;;4901563;29;20064;-75
2021/08/30 10:31:46;;;;;;;0.00;0.00;;;34.50;47.40;;;;;;4902050;29;20059;-73
2021/08/30 10:34:27;;;;;;;0.00;0.00;;;35.10;46.70;;;;;;4885205;29;20063;-73
2021/08/30 10:36:55;;;;;;;0.00;0.00;;;35.90;46.20;;;;;;4901885;29;20072;-74
2021/08/30 10:39:22;;;;;;;0.00;0.00;;;36.20;45.60;;;;;;4901895;29;20421;-73
2021/08/30 10:41:50;;;;;;;0.00;0.00;;;36.50;44.90;;;;;;4901502;29;20032;-73
2021/08/30 10:44:20;;;;;;;0.00;0.00;;;36.20;44.60;;;;;;4884392;29;20033;-73
2021/08/30 10:46:54;;;;;;;0.08;0.00;;;35.50;45.00;;;;;;4901186;29;20036;-72
2021/08/30 10:49:31;;;;;;;0.20;0.00;;;34.70;45.70;;;;;;4885158;29;20060;-74
2021/08/30 10:52:24;;;;;;;0.00;0.00;;;34.10;46.30;;;;;;4901018;29;20462;-75
2021/08/30 10:54:53;;;;;;;0.07;0.03;;;33.60;47.20;;;;;;4898074;29;20040;-75
2021/08/30 10:57:19;;;;;;;0.00;0.00;;;33.40;47.50;;;;;;4884051;29;20112;-74
2021/08/30 10:59:57;;;;;;;0.00;0.00;;;33.20;47.70;;;;;;4899652;29;20029;-74
2021/08/30 11:02:33;;;;;;;0.00;0.00;;;33.10;48.00;;;;;;4901492;29;20088;-73
2021/08/30 11:04:59;;;;;;;0.10;0.10;;;33.10;48.10;;;;;;4900456;29;20036;-74
2021/08/30 11:07:25;;;;;;;0.10;0.10;;;33.10;48.20;;;;;;4900840;29;20025;-74
2021/08/30 11:09:51;;;;;;;0.00;0.00;;;33.00;48.30;;;;;;4901219;29;20033;-74
2021/08/30 11:12:16;;;;;;;0.00;0.00;;;32.90;48.50;;;;;;4900447;29;20103;-74
2021/08/30 11:14:42;;;;;;;0.00;0.00;;;32.90;48.70;;;;;;4900591;29;20430;-73
2021/08/30 11:17:12;;;;;;;0.00;0.00;;;32.90;48.70;;;;;;4900540;29;20119;-74
2021/08/30 11:19:38;;;;;;;0.00;0.00;;;33.00;48.50;;;;;;4900504;29;20108;-75
2021/08/30 11:22:06;;;;;;;0.00;0.00;;;33.00;48.50;;;;;;4900037;29;20112;-75
2021/08/30 11:24:33;;;;;;;0.00;0.00;;;32.90;48.50;;;;;;4900126;29;20041;-73
2021/08/30 11:27:09;;;;;;;0.00;0.00;;;32.80;48.70;;;;;;4900378;29;20410;-75
2021/08/30 11:29:44;;;;;;;0.00;0.00;;;32.70;48.80;;;;;;4900180;29;20108;-74
2021/08/30 11:32:11;;;;;;;0.00;0.00;;;32.60;48.80;;;;;;4883400;29;20136;-74
2021/08/30 11:34:38;;;;;;;0.10;0.10;;;32.50;49.00;;;;;;4900550;29;20041;-74
2021/08/30 11:37:06;;;;;;;0.13;0.13;;;32.50;49.10;;;;;;4900415;29;20076;-74
2021/08/30 11:39:34;;;;;;;0.00;0.00;;;32.60;49.20;;;;;;4900094;29;20432;-74
2021/08/30 11:42:05;;;;;;;0.00;0.00;;;33.00;49.20;;;;;;4899998;29;20115;-74
2021/08/30 11:44:33;;;;;;;0.10;0.10;;;33.30;49.10;;;;;;4883269;29;20037;-74
2021/08/30 11:47:02;;;;;;;0.00;0.00;;;33.80;49.00;;;;;;4882997;29;20029;-74
2021/08/30 11:49:32;;;;;;;0.00;0.00;;;35.10;48.30;;;;;;4899977;29;20028;-75
2021/08/30 11:52:00;;;;;;;0.00;0.00;;;36.60;46.70;;;;;;4900256;29;20051;-74
2021/08/30 11:54:37;;;;;;;0.00;0.00;;;37.40;45.80;;;;;;4899786;29;20029;-73
2021/08/30 11:57:08;;;;;;;0.00;0.00;;;38.10;43.90;;;;;;4899460;29;20478;-74
2021/08/30 11:59:51;;;;;;;0.00;0.00;;;38.30;43.30;;;;;;4899733;29;20048;-74
2021/08/30 12:02:18;;;;;;;0.00;0.00;;;38.10;43.00;;;;;;4883392;29;20029;-74
2021/08/30 12:04:45;;;;;;;0.08;0.08;;;38.40;43.10;;;;;;4899510;29;20093;-74
2021/08/30 12:07:16;;;;;;;0.10;0.10;;;39.20;42.80;;;;;;4899537;29;20128;-74
2021/08/30 12:09:50;;;;;;;0.00;0.00;;;40.30;41.80;;;;;;4898970;29;20032;-75
2021/08/30 12:12:33;;;;;;;0.10;0.10;;;41.60;40.70;;;;;;4882627;29;20033;-75
2021/08/30 12:15:15;;;;;;;0.10;0.10;;;42.70;39.70;;;;;;4898754;29;20048;-74
2021/08/30 12:17:44;;;;;;;0.10;0.10;;;43.60;39.10;;;;;;4899205;29;20077;-75
2021/08/30 12:20:15;;;;;;;0.00;0.00;;;44.00;38.10;;;;;;4899384;29;20037;-75
2021/08/30 12:22:50;;;;;;;0.00;0.00;;;43.80;37.50;;;;;;4883049;29;20024;-76
2021/08/30 12:25:39;;;;;;;0.10;0.10;;;43.40;37.50;;;;;;4882460;29;20029;-74
2021/08/30 12:28:11;;;;;;;0.00;0.00;;;42.90;37.70;;;;;;4899427;29;20032;-75
2021/08/30 12:30:44;;;;;;;;;;;42.60;38.00;;;;;;4899612;29;20077;-75
2021/08/30 12:33:19;;;;;;;0.00;0.00;;;42.50;38.90;;;;;;4897857;29;19959;-75
2021/08/30 12:35:54;;;;;;;0.00;0.00;;;42.90;38.40;;;;;;4899147;29;20040;-74
2021/08/30 12:38:29;;;;;;;0.10;0.10;;;43.50;37.80;;;;;;4882248;29;20025;-74
2021/08/30 12:40:57;;;;;;;0.00;0.00;;;44.00;37.50;;;;;;4898965;29;20032;-75
2021/08/30 12:43:25;;;;;;;0.10;0.10;;;44.60;37.50;;;;;;4898928;29;20025;-76
2021/08/30 12:45:51;;;;;;;0.00;0.00;;;44.80;36.50;;;;;;4898469;29;20040;-75
2021/08/30 12:48:19;;;;;;;0.10;0.10;;;44.80;36.20;;;;;;4899024;29;20048;-75
2021/08/30 12:50:47;;;;;;;0.00;0.00;;;44.20;36.10;;;;;;4881757;29;20032;-75
2021/08/30 12:53:13;;;;;;;0.00;0.00;;;43.80;36.50;;;;;;4882719;29;20039;-75
2021/08/30 12:55:40;;;;;;;0.00;0.00;;;43.30;36.90;;;;;;4898865;29;20139;-74